Tracy City, Tennessee
Current Conditions -  °F | °C
As of 4:35 PM on Monday 20 Oct 2014 (Local Time) from KBGF Reporting Station
Few Clouds Few Clouds  
Wind Chill: 64°   Ceiling: Unl
Heat Index: 64°   Visibility: 10mi
Dew Point: 50°   Wind: 5mph
Humidity: 59%   Direction: 240°WSW
Pressure: 30.01"   Gusts: NA
Location:  35.26°N, 85.74°W
Report Text: KBGF 202135Z AUTO 24004KT 10SM FEW100 18/10 A3001 RMK
Loading
Personal Weather Stations






























Interactive Weather Map
Tropical Storm Tracking
New forecast layout! Learn more

10-Day Weather Forecast

Advertisements
Track Severe Weather on mobile